Time;durP1;ratioP1;P1;durP2;ratioP2;P2;SDS_P1;SDS_P2;PMS_P1;PMS_P2;Temp;Humidity;BMP_temperature;BMP_pressure;BME280_temperature;BME280_humidity;BME280_pressure;Samples;Min_cycle;Max_cycle;Signal;HPM_P1;HPM_P2
2021/11/04 05:01:11;;;;;;;3.57;3.37;;;7.40;99.90;;;;;;5663922;23;20576;-70
2021/11/04 05:03:40;;;;;;;3.03;2.80;;;7.50;99.90;;;;;;4996136;28;20462;-69
2021/11/04 05:06:07;;;;;;;2.90;2.77;;;7.50;99.90;;;;;;4996021;28;20940;-69
2021/11/04 05:08:33;;;;;;;2.70;2.60;;;7.60;99.90;;;;;;4996000;28;20446;-69
2021/11/04 05:11:00;;;;;;;3.00;2.80;;;7.60;99.90;;;;;;4995860;28;20576;-69
2021/11/04 05:13:27;;;;;;;2.67;2.57;;;7.50;99.90;;;;;;4996064;28;20455;-69
2021/11/04 05:15:53;;;;;;;3.23;3.07;;;7.50;99.90;;;;;;4995600;28;20461;-69
2021/11/04 05:18:21;;;;;;;3.13;2.83;;;7.50;99.90;;;;;;4995623;28;20540;-69
2021/11/04 05:20:48;;;;;;;2.37;2.27;;;7.50;99.90;;;;;;4995857;28;20482;-69
2021/11/04 05:23:15;;;;;;;2.80;2.70;;;7.50;99.90;;;;;;4995536;28;20536;-69
2021/11/04 05:25:42;;;;;;;2.53;2.43;;;7.50;99.90;;;;;;4995675;28;20854;-69
2021/11/04 05:28:09;;;;;;;1.90;1.90;;;7.40;99.90;;;;;;4995551;28;20839;-69
2021/11/04 05:30:36;;;;;;;2.20;2.17;;;7.40;99.90;;;;;;4995402;28;20479;-69
2021/11/04 05:33:03;;;;;;;2.17;2.00;;;7.40;99.90;;;;;;4995626;28;20821;-69
2021/11/04 05:35:31;;;;;;;2.20;2.10;;;7.40;99.90;;;;;;4995438;28;20494;-69
2021/11/04 05:37:57;;;;;;;2.60;2.40;;;7.40;99.90;;;;;;4995335;28;20501;-69
2021/11/04 05:40:24;;;;;;;1.90;1.90;;;7.40;99.90;;;;;;4994992;28;20941;-68
2021/11/04 05:42:51;;;;;;;2.50;2.40;;;7.40;99.90;;;;;;4995210;28;20458;-69
2021/11/04 05:45:18;;;;;;;2.40;2.30;;;7.30;99.90;;;;;;4995234;28;20462;-69
2021/11/04 05:47:44;;;;;;;2.20;2.10;;;7.30;99.90;;;;;;4994856;28;20481;-68
2021/11/04 05:50:12;;;;;;;2.07;2.00;;;7.40;99.90;;;;;;4995456;28;20458;-69
2021/11/04 05:52:40;;;;;;;2.10;2.00;;;7.30;99.90;;;;;;4994763;28;20877;-69
2021/11/04 05:55:07;;;;;;;2.47;2.37;;;7.30;99.90;;;;;;4995231;28;20454;-68
2021/11/04 05:57:34;;;;;;;2.37;2.27;;;7.30;99.90;;;;;;4997116;28;20438;-70
2021/11/04 06:00:00;;;;;;;2.07;1.97;;;7.30;99.90;;;;;;4996861;28;20489;-69
2021/11/04 06:02:27;;;;;;;1.73;1.73;;;7.30;99.90;;;;;;4994515;28;20487;-69
2021/11/04 06:04:54;;;;;;;2.20;2.10;;;7.30;99.90;;;;;;4994290;28;20466;-69
2021/11/04 06:07:21;;;;;;;2.50;2.40;;;7.40;99.90;;;;;;4994623;28;20469;-69
2021/11/04 06:09:49;;;;;;;1.87;1.87;;;7.40;99.90;;;;;;4995017;28;20817;-70
2021/11/04 06:12:16;;;;;;;1.90;1.90;;;7.40;99.90;;;;;;4994666;28;20481;-70
2021/11/04 06:14:42;;;;;;;2.23;2.13;;;7.40;99.90;;;;;;4994286;28;20454;-70
2021/11/04 06:17:09;;;;;;;2.00;1.90;;;7.40;99.90;;;;;;4994499;28;20858;-69
2021/11/04 06:19:36;;;;;;;2.33;2.23;;;7.40;99.90;;;;;;4994367;28;20477;-69
2021/11/04 06:22:03;;;;;;;2.07;2.07;;;7.30;99.90;;;;;;4993937;28;20485;-70
2021/11/04 06:24:30;;;;;;;2.70;2.37;;;7.40;99.90;;;;;;4994324;28;20457;-69
2021/11/04 06:26:58;;;;;;;3.70;2.23;;;7.50;99.90;;;;;;4994327;28;20458;-69
2021/11/04 06:29:25;;;;;;;1.93;1.93;;;7.50;99.90;;;;;;4994244;28;20473;-69
2021/11/04 06:31:51;;;;;;;2.50;2.40;;;7.50;99.90;;;;;;4993910;28;20984;-69
2021/11/04 06:34:18;;;;;;;3.00;2.53;;;7.50;99.90;;;;;;4994280;28;20461;-69
2021/11/04 06:36:45;;;;;;;2.30;2.20;;;7.60;99.90;;;;;;4994154;28;20464;-69
2021/11/04 06:39:12;;;;;;;2.53;2.40;;;7.50;99.90;;;;;;4994151;28;20469;-69
2021/11/04 06:41:39;;;;;;;2.20;2.10;;;7.50;99.90;;;;;;4994018;28;20471;-69
2021/11/04 06:44:07;;;;;;;2.77;2.40;;;7.50;99.90;;;;;;4993917;28;20461;-69
2021/11/04 06:46:36;;;;;;;2.40;2.30;;;7.60;99.90;;;;;;4994259;28;20469;-70
2021/11/04 06:49:07;;;;;;;2.60;2.40;;;7.70;99.90;;;;;;4993867;28;20930;-69
2021/11/04 06:51:38;;;;;;;2.80;2.60;;;7.70;99.90;;;;;;4993738;28;20528;-70
2021/11/04 06:54:07;;;;;;;2.50;2.40;;;7.70;99.90;;;;;;4994147;28;20438;-69
2021/11/04 06:56:40;;;;;;;3.07;2.87;;;7.70;99.90;;;;;;4994211;28;20464;-68
2021/11/04 06:59:16;;;;;;;2.50;2.40;;;7.70;99.90;;;;;;4994010;28;20473;-68
2021/11/04 07:01:49;;;;;;;2.30;2.20;;;7.70;99.90;;;;;;4994023;28;20902;-68
2021/11/04 07:04:23;;;;;;;2.40;2.10;;;7.70;99.90;;;;;;4994029;28;20449;-68
2021/11/04 07:06:55;;;;;;;2.17;2.17;;;7.70;99.90;;;;;;4994319;28;20442;-69
2021/11/04 07:09:22;;;;;;;3.07;2.20;;;7.70;99.90;;;;;;4994129;28;20445;-68
2021/11/04 07:11:50;;;;;;;1.93;1.83;;;7.70;99.90;;;;;;4994135;28;20485;-68
2021/11/04 07:14:20;;;;;;;2.30;1.67;;;7.70;99.90;;;;;;4994971;28;20973;-68
2021/11/04 07:16:48;;;;;;;2.27;2.17;;;7.80;99.90;;;;;;4996178;28;20457;-69
2021/11/04 07:19:18;;;;;;;1.83;1.83;;;7.70;99.90;;;;;;4997908;28;20478;-68
2021/11/04 07:21:51;;;;;;;1.93;1.80;;;7.70;99.90;;;;;;4998191;28;20478;-69
2021/11/04 07:24:27;;;;;;;2.20;2.10;;;7.70;99.90;;;;;;4997611;28;20818;-69
2021/11/04 07:26:56;;;;;;;1.73;1.73;;;7.80;99.90;;;;;;4997638;28;20443;-69
2021/11/04 07:29:30;;;;;;;1.83;1.83;;;7.80;99.90;;;;;;4997380;28;20849;-69
2021/11/04 07:31:57;;;;;;;1.40;1.40;;;7.80;99.90;;;;;;4997338;28;21003;-69
2021/11/04 07:34:26;;;;;;;2.43;1.30;;;7.80;99.90;;;;;;4997545;28;20459;-69
2021/11/04 07:36:53;;;;;;;1.50;1.50;;;7.70;99.90;;;;;;4997822;28;20455;-69
2021/11/04 07:39:20;;;;;;;1.30;1.30;;;7.70;99.90;;;;;;4997291;28;20996;-69
2021/11/04 07:41:47;;;;;;;1.70;1.60;;;7.80;99.90;;;;;;4997641;28;20470;-69
2021/11/04 07:44:13;;;;;;;1.83;1.73;;;7.80;99.90;;;;;;4997728;28;20474;-69
2021/11/04 07:46:41;;;;;;;2.10;2.03;;;7.80;99.90;;;;;;4997132;28;20965;-69
2021/11/04 07:49:08;;;;;;;2.30;1.50;;;7.80;99.90;;;;;;4997271;28;20461;-69
2021/11/04 07:51:36;;;;;;;1.77;1.67;;;7.80;99.90;;;;;;4997077;28;20544;-69
2021/11/04 07:54:05;;;;;;;1.60;1.60;;;7.80;99.90;;;;;;4997241;28;20457;-69
2021/11/04 07:56:34;;;;;;;2.60;2.07;;;7.80;99.90;;;;;;5000141;28;20458;-69
2021/11/04 07:59:00;;;;;;;1.90;1.80;;;7.80;99.90;;;;;;4998920;28;20501;-69
2021/11/04 08:01:27;;;;;;;1.93;1.83;;;7.70;99.90;;;;;;4996700;28;20836;-69
2021/11/04 08:03:55;;;;;;;1.77;1.67;;;7.70;99.90;;;;;;4997073;28;20459;-69
2021/11/04 08:06:22;;;;;;;1.80;1.77;;;7.80;99.90;;;;;;4997062;28;20451;-69
2021/11/04 08:08:48;;;;;;;1.77;1.67;;;7.70;99.90;;;;;;4996752;28;21020;-69
2021/11/04 08:11:16;;;;;;;1.63;1.60;;;7.70;99.90;;;;;;4997170;28;20478;-69
2021/11/04 08:13:43;;;;;;;1.43;1.43;;;7.70;99.90;;;;;;4996899;28;20553;-69
2021/11/04 08:16:09;;;;;;;2.03;1.97;;;7.60;99.90;;;;;;4996875;28;20453;-69
2021/11/04 08:18:36;;;;;;;1.80;1.77;;;7.50;99.90;;;;;;4996883;28;20520;-69
2021/11/04 08:21:04;;;;;;;3.03;1.80;;;7.50;99.90;;;;;;4996599;28;20475;-69
2021/11/04 08:23:31;;;;;;;2.40;2.30;;;7.60;99.90;;;;;;4996720;28;20480;-69
2021/11/04 08:25:58;;;;;;;2.53;2.33;;;7.50;99.90;;;;;;4996376;28;20552;-69
2021/11/04 08:28:25;;;;;;;2.50;2.40;;;7.30;99.90;;;;;;4996305;28;20450;-69
2021/11/04 08:30:51;;;;;;;2.83;2.70;;;7.50;99.90;;;;;;4996190;28;20848;-69
2021/11/04 08:33:18;;;;;;;3.30;3.10;;;7.50;99.90;;;;;;4996401;28;20464;-69
2021/11/04 08:35:46;;;;;;;3.17;2.97;;;7.50;99.90;;;;;;4996368;28;20489;-69
2021/11/04 08:38:14;;;;;;;8.00;3.03;;;7.50;99.90;;;;;;4996204;28;20525;-69
2021/11/04 08:40:40;;;;;;;3.80;3.50;;;7.50;99.90;;;;;;4996021;28;20501;-69
2021/11/04 08:43:07;;;;;;;4.67;4.27;;;7.50;99.90;;;;;;4995840;28;20791;-68
2021/11/04 08:45:34;;;;;;;5.40;4.60;;;7.50;99.90;;;;;;4996048;28;20787;-69
2021/11/04 08:48:01;;;;;;;5.10;4.80;;;7.50;99.90;;;;;;4996124;28;20454;-69
2021/11/04 08:50:28;;;;;;;5.63;5.13;;;7.40;99.90;;;;;;4996112;28;20450;-69
2021/11/04 08:52:56;;;;;;;6.13;5.63;;;7.50;99.90;;;;;;4996018;28;20577;-69
2021/11/04 08:55:24;;;;;;;5.73;5.30;;;7.50;99.90;;;;;;4996699;28;20799;-68
2021/11/04 08:57:51;;;;;;;6.47;5.97;;;7.50;99.90;;;;;;4996027;28;20469;-68
2021/11/04 09:00:19;;;;;;;4.83;4.50;;;7.60;99.90;;;;;;4995308;28;20934;-69
2021/11/04 09:02:46;;;;;;;5.03;4.63;;;7.70;99.90;;;;;;4995872;28;20470;-69
2021/11/04 09:05:13;;;;;;;5.10;4.70;;;7.70;99.90;;;;;;4995759;28;20454;-69
2021/11/04 09:07:40;;;;;;;5.00;4.60;;;7.80;99.90;;;;;;4995483;28;20971;-68
2021/11/04 09:10:09;;;;;;;4.93;4.50;;;7.80;99.90;;;;;;4995896;28;20451;-69
2021/11/04 09:12:39;;;;;;;3.60;3.40;;;7.80;99.90;;;;;;4995295;28;20497;-69
2021/11/04 09:15:07;;;;;;;4.50;4.10;;;7.80;99.90;;;;;;4995712;28;20465;-69
2021/11/04 09:17:34;;;;;;;4.87;4.03;;;7.80;99.90;;;;;;4995696;28;20461;-69
2021/11/04 09:20:01;;;;;;;4.97;3.80;;;7.80;99.90;;;;;;4995444;28;20478;-69
2021/11/04 09:22:28;;;;;;;4.13;3.83;;;7.80;99.90;;;;;;4995340;28;20862;-69
2021/11/04 09:24:56;;;;;;;7.10;3.10;;;7.90;99.90;;;;;;4995292;28;20963;-69
2021/11/04 09:27:22;;;;;;;3.00;2.80;;;7.90;99.90;;;;;;4995322;28;20457;-69
2021/11/04 09:29:51;;;;;;;2.70;2.50;;;8.00;99.90;;;;;;4995370;28;20461;-68
2021/11/04 09:32:18;;;;;;;2.67;2.53;;;8.00;99.90;;;;;;4994957;28;20922;-69
2021/11/04 09:34:45;;;;;;;2.33;2.23;;;8.10;99.90;;;;;;4994932;28;20996;-69
2021/11/04 09:37:12;;;;;;;2.77;2.57;;;8.10;99.90;;;;;;4995161;28;20463;-69
2021/11/04 09:39:38;;;;;;;2.20;2.00;;;8.10;99.90;;;;;;4994748;28;20485;-69
2021/11/04 09:42:06;;;;;;;1.93;1.83;;;8.20;99.90;;;;;;4995075;28;20478;-69
2021/11/04 09:44:33;;;;;;;2.63;2.43;;;8.20;99.90;;;;;;4995065;28;20458;-68
2021/11/04 09:47:01;;;;;;;2.17;2.07;;;8.20;99.90;;;;;;4995007;28;20793;-69
2021/11/04 09:49:29;;;;;;;1.90;1.80;;;8.20;99.90;;;;;;4995004;28;20474;-69
2021/11/04 09:51:56;;;;;;;2.27;2.17;;;8.20;99.90;;;;;;4994781;28;20830;-69
2021/11/04 09:54:23;;;;;;;2.20;2.10;;;8.20;99.90;;;;;;4995852;28;20534;-69
2021/11/04 09:56:50;;;;;;;2.50;2.33;;;8.20;99.90;;;;;;4996893;28;20465;-70
2021/11/04 09:59:17;;;;;;;2.10;2.00;;;8.20;99.90;;;;;;4994887;28;20481;-69
2021/11/04 10:01:47;;;;;;;1.93;1.83;;;8.20;99.90;;;;;;4994219;28;20493;-69
2021/11/04 10:04:15;;;;;;;2.50;2.40;;;8.10;99.90;;;;;;4994843;28;20451;-69
2021/11/04 10:06:42;;;;;;;2.20;2.10;;;8.20;99.90;;;;;;4994560;28;20457;-69
2021/11/04 10:09:11;;;;;;;2.67;2.47;;;8.20;99.90;;;;;;4994630;28;20461;-69
2021/11/04 10:11:41;;;;;;;2.57;2.37;;;8.20;99.90;;;;;;4994205;28;20483;-69
2021/11/04 10:14:10;;;;;;;2.33;2.23;;;8.20;99.90;;;;;;4994834;28;20458;-68
2021/11/04 10:16:37;;;;;;;2.80;2.60;;;8.20;99.90;;;;;;4994763;28;20877;-69
2021/11/04 10:19:05;;;;;;;3.30;3.00;;;8.20;99.90;;;;;;4994165;28;20945;-69
2021/11/04 10:21:35;;;;;;;4.60;4.00;;;8.20;99.90;;;;;;4994717;28;20477;-69
2021/11/04 10:24:04;;;;;;;5.50;5.03;;;8.00;99.90;;;;;;4994601;28;20450;-69
2021/11/04 10:26:35;;;;;;;4.90;3.93;;;8.10;99.90;;;;;;4994289;28;20845;-69
2021/11/04 10:29:04;;;;;;;4.30;3.90;;;8.00;99.90;;;;;;4994334;28;20929;-69
2021/11/04 10:31:37;;;;;;;4.57;4.27;;;8.00;99.90;;;;;;4994609;28;20504;-69
2021/11/04 10:34:04;;;;;;;4.87;4.47;;;7.90;99.90;;;;;;4994544;28;20471;-69
2021/11/04 10:36:34;;;;;;;5.87;4.80;;;8.00;99.90;;;;;;4994686;28;20480;-68
2021/11/04 10:39:01;;;;;;;8.17;7.00;;;8.00;99.90;;;;;;4994458;28;20950;-69
2021/11/04 10:41:31;;;;;;;10.20;8.00;;;8.00;99.90;;;;;;4994434;28;20487;-69
2021/11/04 10:44:03;;;;;;;10.83;7.93;;;8.00;99.90;;;;;;4994439;28;20556;-69
2021/11/04 10:46:31;;;;;;;10.03;8.80;;;8.00;99.90;;;;;;4994880;28;20438;-69
2021/11/04 10:49:00;;;;;;;15.63;11.50;;;7.90;99.90;;;;;;4994518;28;20490;-69
2021/11/04 10:51:27;;;;;;;18.07;12.33;;;7.90;99.90;;;;;;4993837;28;20473;-69
2021/11/04 10:53:58;;;;;;;16.63;13.93;;;8.00;99.90;;;;;;4994472;28;20454;-69
2021/11/04 10:56:25;;;;;;;22.00;16.87;;;8.00;99.90;;;;;;4994457;28;20538;-69
2021/11/04 10:58:58;;;;;;;21.40;15.83;;;8.00;99.90;;;;;;4994101;28;20449;-69
2021/11/04 11:01:30;;;;;;;17.20;15.33;;;8.00;99.90;;;;;;4993903;28;20489;-68
2021/11/04 11:04:01;;;;;;;18.60;15.50;;;8.00;99.90;;;;;;4994023;28;20438;-70
2021/11/04 11:06:30;;;;;;;18.67;16.70;;;8.00;99.90;;;;;;4994067;28;20546;-69
2021/11/04 11:08:59;;;;;;;18.90;17.00;;;8.10;99.90;;;;;;4993972;28;20454;-69
2021/11/04 11:11:26;;;;;;;16.73;14.07;;;8.10;99.90;;;;;;4993514;28;20982;-68
2021/11/04 11:13:53;;;;;;;17.33;14.40;;;8.10;99.90;;;;;;4993841;28;20454;-69
2021/11/04 11:16:20;;;;;;;16.67;14.27;;;8.10;99.90;;;;;;4993523;28;20967;-69
2021/11/04 11:18:47;;;;;;;20.97;15.23;;;8.10;99.90;;;;;;4993875;28;20461;-68
2021/11/04 11:21:14;;;;;;;18.60;14.50;;;8.00;99.90;;;;;;4993769;28;20496;-68
2021/11/04 11:23:42;;;;;;;14.23;12.50;;;8.10;99.90;;;;;;4994000;28;20458;-68
2021/11/04 11:26:15;;;;;;;15.10;13.07;;;8.10;99.90;;;;;;4993923;28;20489;-68
2021/11/04 11:28:43;;;;;;;15.17;13.57;;;8.10;99.90;;;;;;4993961;28;20500;-68
2021/11/04 11:31:20;;;;;;;14.90;13.40;;;8.10;99.90;;;;;;4993554;28;20533;-68
2021/11/04 11:33:49;;;;;;;14.97;13.43;;;8.10;99.90;;;;;;4993749;28;20505;-68
2021/11/04 11:36:18;;;;;;;15.90;13.60;;;8.20;99.90;;;;;;4993722;28;20481;-68
2021/11/04 11:39:06;;;;;;;15.67;13.70;;;8.20;99.90;;;;;;4994192;28;20454;-68
2021/11/04 11:41:55;;;;;;;13.73;12.37;;;8.20;99.90;;;;;;4994553;28;20556;-68
2021/11/04 11:44:34;;;;;;;15.80;13.10;;;8.00;99.90;;;;;;4993841;28;20458;-68
2021/11/04 11:47:02;;;;;;;15.60;13.00;;;8.10;99.90;;;;;;4994223;28;20446;-68
2021/11/04 11:49:31;;;;;;;18.20;13.13;;;8.00;99.90;;;;;;4994271;28;20461;-68
2021/11/04 11:51:57;;;;;;;14.40;12.90;;;8.00;99.90;;;;;;4994082;28;20510;-68
2021/11/04 11:55:02;;;;;;;14.43;13.03;;;7.90;99.90;;;;;;4996113;28;20494;-68
2021/11/04 11:57:31;;;;;;;15.67;14.00;;;7.90;99.90;;;;;;4995110;28;20461;-68
2021/11/04 11:59:58;;;;;;;15.07;13.57;;;8.00;99.90;;;;;;4994050;28;20513;-68
2021/11/04 12:02:44;;;;;;;14.67;13.27;;;8.20;99.90;;;;;;4993678;28;20513;-69
2021/11/04 12:05:34;;;;;;;14.93;13.43;;;8.20;99.90;;;;;;4997136;28;20509;-69
2021/11/04 12:08:35;;;;;;;15.37;13.87;;;8.20;99.90;;;;;;4991659;28;20461;-69
2021/11/04 12:11:05;;;;;;;16.13;14.50;;;8.10;99.90;;;;;;4996891;28;20476;-68
2021/11/04 12:13:38;;;;;;;17.57;15.73;;;8.10;99.90;;;;;;4997428;28;20529;-69
2021/11/04 12:16:17;;;;;;;18.30;16.50;;;8.20;99.90;;;;;;4996803;28;20838;-69
2021/11/04 12:18:51;;;;;;;16.73;14.97;;;8.30;99.90;;;;;;4997195;28;20791;-69
2021/11/04 12:21:20;;;;;;;16.43;14.73;;;8.40;99.90;;;;;;4997111;28;20485;-69
2021/11/04 12:23:47;;;;;;;16.73;14.97;;;8.40;99.90;;;;;;4997021;28;20492;-69
2021/11/04 12:26:15;;;;;;;16.53;15.03;;;8.40;99.90;;;;;;4997374;28;20450;-69
2021/11/04 12:28:44;;;;;;;16.60;15.00;;;8.50;99.90;;;;;;4997073;28;20481;-68
2021/11/04 12:31:16;;;;;;;15.07;13.57;;;8.40;99.90;;;;;;4997359;28;20473;-69
2021/11/04 12:33:43;;;;;;;12.87;11.67;;;8.40;99.90;;;;;;4997745;28;20457;-69
2021/11/04 12:36:10;;;;;;;13.40;12.10;;;8.40;99.90;;;;;;4997245;28;20897;-68
2021/11/04 12:38:43;;;;;;;12.90;11.70;;;8.40;99.90;;;;;;4996809;28;20459;-69
2021/11/04 12:41:11;;;;;;;12.23;11.03;;;8.40;99.90;;;;;;4997152;28;20565;-69
2021/11/04 12:43:39;;;;;;;13.47;12.17;;;8.40;99.90;;;;;;4996804;28;20818;-69
2021/11/04 12:46:16;;;;;;;12.60;11.40;;;8.40;99.90;;;;;;4996701;28;20462;-69
2021/11/04 12:48:45;;;;;;;13.50;12.20;;;8.40;99.90;;;;;;4996601;28;20786;-69
2021/11/04 12:51:12;;;;;;;12.90;11.63;;;8.50;99.90;;;;;;4996510;28;20471;-69
2021/11/04 12:53:53;;;;;;;11.20;10.20;;;8.60;99.90;;;;;;4996450;28;20482;-69
2021/11/04 12:56:20;;;;;;;12.40;11.20;;;8.70;99.90;;;;;;4996461;28;20446;-69
2021/11/04 12:58:52;;;;;;;10.90;9.80;;;8.80;99.90;;;;;;4996881;28;20464;-69
2021/11/04 13:01:21;;;;;;;11.10;10.10;;;8.90;99.90;;;;;;4996264;28;20482;-69
2021/11/04 13:03:48;;;;;;;11.37;10.30;;;8.90;99.90;;;;;;4996808;28;20461;-69
2021/11/04 13:06:14;;;;;;;10.27;9.47;;;9.00;99.90;;;;;;4996245;28;20458;-69
2021/11/04 13:08:41;;;;;;;10.63;9.73;;;9.00;99.90;;;;;;4996161;28;20544;-69
2021/11/04 13:11:16;;;;;;;12.20;11.00;;;9.00;99.90;;;;;;4996037;28;20480;-69
2021/11/04 13:13:49;;;;;;;12.93;11.63;;;8.90;99.90;;;;;;4995950;28;20460;-69
2021/11/04 13:16:25;;;;;;;11.10;10.10;;;8.90;99.90;;;;;;4995543;28;20453;-69
2021/11/04 13:18:52;;;;;;;12.20;11.00;;;8.90;99.90;;;;;;4995971;28;20491;-69
2021/11/04 13:21:26;;;;;;;12.03;10.90;;;8.90;99.90;;;;;;4995539;28;21008;-69
2021/11/04 13:23:52;;;;;;;13.13;11.93;;;8.90;99.90;;;;;;4996208;28;20455;-69
2021/11/04 13:26:20;;;;;;;13.83;11.30;;;8.90;99.90;;;;;;4995747;28;20465;-69
2021/11/04 13:28:47;;;;;;;11.83;10.73;;;8.90;99.90;;;;;;4995541;28;20489;-69
2021/11/04 13:31:15;;;;;;;11.73;10.60;;;8.90;99.90;;;;;;4995950;28;20498;-69
2021/11/04 13:33:45;;;;;;;11.80;10.70;;;8.90;99.90;;;;;;4995714;28;20455;-70
2021/11/04 13:36:13;;;;;;;12.80;11.60;;;8.90;99.90;;;;;;4996437;28;20435;-70
2021/11/04 13:38:51;;;;;;;11.87;10.77;;;9.00;99.90;;;;;;4998490;28;20454;-69
2021/11/04 13:41:27;;;;;;;11.27;10.27;;;8.90;99.90;;;;;;4997963;28;20482;-69
2021/11/04 13:43:56;;;;;;;13.13;11.83;;;8.90;99.90;;;;;;4998846;28;20438;-69
2021/11/04 13:46:22;;;;;;;13.10;11.90;;;8.90;99.90;;;;;;4997914;28;20927;-69
2021/11/04 13:48:53;;;;;;;12.33;11.03;;;8.90;99.90;;;;;;4995317;28;20454;-70
2021/11/04 13:51:29;;;;;;;13.20;11.93;;;8.90;99.90;;;;;;4995121;28;20837;-69
2021/11/04 13:54:08;;;;;;;14.03;12.67;;;8.90;99.90;;;;;;4994915;28;20945;-69
2021/11/04 13:56:34;;;;;;;13.03;11.87;;;8.90;99.90;;;;;;4995253;28;20437;-69
2021/11/04 13:59:02;;;;;;;13.03;11.80;;;8.90;99.90;;;;;;4995365;28;20461;-68
2021/11/04 14:01:29;;;;;;;14.33;12.60;;;8.80;99.90;;;;;;4994630;28;20485;-69
2021/11/04 14:04:08;;;;;;;13.20;11.63;;;8.80;99.90;;;;;;4995185;28;20459;-68
2021/11/04 14:06:43;;;;;;;13.70;12.40;;;8.80;99.90;;;;;;4995434;28;20454;-69
2021/11/04 14:09:10;;;;;;;13.57;12.37;;;8.70;99.90;;;;;;4997592;28;20461;-68
2021/11/04 14:11:37;;;;;;;14.00;12.73;;;8.60;99.90;;;;;;4995436;28;20475;-69
2021/11/04 14:14:09;;;;;;;13.67;12.37;;;8.60;99.90;;;;;;4994981;28;20946;-69
2021/11/04 14:16:37;;;;;;;13.80;12.50;;;8.60;99.90;;;;;;4995313;28;20813;-69
2021/11/04 14:19:07;;;;;;;12.90;11.73;;;8.60;99.90;;;;;;4994742;28;20834;-69
2021/11/04 14:21:39;;;;;;;14.10;12.83;;;8.60;99.90;;;;;;4995483;28;20473;-69
2021/11/04 14:24:08;;;;;;;12.67;11.43;;;8.60;99.90;;;;;;4994898;28;20443;-69
2021/11/04 14:26:38;;;;;;;13.30;11.97;;;8.70;99.90;;;;;;4993960;28;20458;-69
2021/11/04 14:29:06;;;;;;;14.73;13.10;;;8.60;99.90;;;;;;4994581;28;20937;-69
2021/11/04 14:31:33;;;;;;;12.73;11.50;;;8.70;99.90;;;;;;4994408;28;20474;-69
2021/11/04 14:34:00;;;;;;;12.40;11.30;;;8.80;99.90;;;;;;4994733;28;20465;-69
2021/11/04 14:36:28;;;;;;;12.23;11.13;;;8.80;99.90;;;;;;4994588;28;20457;-69
2021/11/04 14:38:55;;;;;;;11.13;10.03;;;8.90;99.90;;;;;;4994480;28;20830;-69
2021/11/04 14:41:22;;;;;;;11.93;10.77;;;8.90;99.90;;;;;;4994330;28;20512;-69
2021/11/04 14:43:49;;;;;;;12.77;11.57;;;8.90;99.90;;;;;;4994493;28;20453;-69
2021/11/04 14:46:16;;;;;;;11.77;10.57;;;9.00;99.90;;;;;;4994012;28;20825;-70
2021/11/04 14:48:43;;;;;;;11.40;10.40;;;9.10;99.90;;;;;;4994491;28;20466;-69
2021/11/04 14:51:10;;;;;;;12.47;11.43;;;9.00;99.90;;;;;;4994181;28;20476;-69
2021/11/04 14:53:39;;;;;;;10.23;9.17;;;9.00;99.90;;;;;;4994416;28;20458;-69
2021/11/04 14:56:07;;;;;;;12.10;11.00;;;9.00;99.90;;;;;;4994165;28;20853;-68
2021/11/04 14:58:33;;;;;;;11.30;10.40;;;9.00;99.90;;;;;;4994316;28;20454;-69
2021/11/04 15:01:01;;;;;;;11.07;10.17;;;9.00;99.90;;;;;;4994678;28;20486;-69
2021/11/04 15:03:28;;;;;;;13.40;12.10;;;9.00;99.90;;;;;;4994330;28;20458;-69
2021/11/04 15:05:55;;;;;;;11.83;10.73;;;9.10;99.90;;;;;;4994181;28;20455;-69
2021/11/04 15:08:23;;;;;;;9.87;9.07;;;9.10;99.90;;;;;;4994196;28;20453;-69
2021/11/04 15:10:52;;;;;;;10.90;9.80;;;9.10;99.90;;;;;;4994177;28;20837;-68
2021/11/04 15:13:19;;;;;;;9.87;8.97;;;9.10;99.90;;;;;;4994238;28;20454;-69
2021/11/04 15:15:46;;;;;;;8.80;8.00;;;9.00;99.90;;;;;;4994104;28;20462;-70
2021/11/04 15:18:13;;;;;;;8.60;7.90;;;9.00;99.90;;;;;;4994059;28;20464;-70
2021/11/04 15:20:39;;;;;;;8.10;7.40;;;8.90;99.90;;;;;;4993956;28;20479;-69
2021/11/04 15:23:06;;;;;;;8.20;7.50;;;8.90;99.90;;;;;;4994068;28;20453;-68
2021/11/04 15:25:35;;;;;;;7.67;6.97;;;8.90;99.90;;;;;;4994243;28;20466;-68
2021/11/04 15:28:04;;;;;;;7.97;7.17;;;8.90;99.90;;;;;;4993999;28;20454;-68
2021/11/04 15:30:30;;;;;;;8.53;7.67;;;8.90;99.90;;;;;;4993782;28;20976;-69
2021/11/04 15:32:57;;;;;;;8.20;7.50;;;8.90;99.90;;;;;;4994175;28;20852;-70
2021/11/04 15:35:24;;;;;;;8.17;7.50;;;8.80;99.90;;;;;;4994109;28;20462;-70
2021/11/04 15:37:51;;;;;;;6.87;6.37;;;8.80;99.90;;;;;;4995423;28;20457;-69
2021/11/04 15:40:19;;;;;;;7.53;6.93;;;8.80;99.90;;;;;;4997563;28;20465;-68
2021/11/04 15:42:46;;;;;;;7.40;6.77;;;8.80;99.90;;;;;;4997645;28;20888;-70
2021/11/04 15:45:15;;;;;;;6.80;6.30;;;8.80;99.90;;;;;;4997342;28;20460;-69
2021/11/04 15:47:42;;;;;;;7.47;6.80;;;8.70;99.90;;;;;;4999538;28;20469;-69
2021/11/04 15:50:12;;;;;;;6.90;6.37;;;8.70;99.90;;;;;;5001067;28;20453;-70
2021/11/04 15:52:39;;;;;;;6.10;5.67;;;8.50;99.90;;;;;;4997647;28;20504;-68
2021/11/04 15:55:07;;;;;;;5.67;5.03;;;8.40;99.90;;;;;;4997610;28;20458;-68
2021/11/04 15:57:34;;;;;;;6.10;5.70;;;8.40;99.90;;;;;;4997616;28;20460;-68
2021/11/04 16:00:01;;;;;;;6.30;5.90;;;8.30;99.90;;;;;;4997699;28;20545;-69
2021/11/04 16:02:29;;;;;;;5.10;4.60;;;8.30;99.90;;;;;;4997191;28;20517;-68
2021/11/04 16:04:56;;;;;;;4.87;4.57;;;8.30;99.90;;;;;;4997496;28;21004;-70
2021/11/04 16:07:23;;;;;;;5.13;4.60;;;8.30;99.90;;;;;;4997472;28;20517;-70
2021/11/04 16:09:50;;;;;;;4.50;4.20;;;8.20;99.90;;;;;;4997276;28;20453;-68
2021/11/04 16:12:17;;;;;;;4.30;3.43;;;8.20;99.90;;;;;;4996912;28;20992;-68
2021/11/04 16:14:43;;;;;;;2.80;2.60;;;8.20;99.90;;;;;;4997099;28;20463;-68
2021/11/04 16:17:10;;;;;;;2.53;2.33;;;8.20;99.90;;;;;;4997152;28;20455;-69
2021/11/04 16:19:38;;;;;;;2.13;2.03;;;8.10;99.90;;;;;;4998117;28;20450;-69
2021/11/04 16:22:05;;;;;;;2.93;2.10;;;8.00;99.90;;;;;;4997300;28;20481;-70
2021/11/04 16:24:32;;;;;;;2.40;2.20;;;8.00;99.90;;;;;;4997013;28;20594;-71
2021/11/04 16:26:58;;;;;;;2.10;2.00;;;8.00;99.90;;;;;;4997741;28;20457;-69
2021/11/04 16:29:25;;;;;;;2.40;2.30;;;8.10;99.90;;;;;;4996945;28;20827;-70
2021/11/04 16:31:52;;;;;;;2.40;2.30;;;8.10;99.90;;;;;;4996473;28;20473;-70
2021/11/04 16:34:20;;;;;;;2.13;1.93;;;8.00;99.90;;;;;;4996887;28;20772;-71
2021/11/04 16:37:35;;;;;;;1.80;1.80;;;8.00;99.90;;;;;;4996870;28;20458;-70
2021/11/04 16:40:02;;;;;;;3.20;2.90;;;8.00;99.90;;;;;;4997361;28;20454;-71
2021/11/04 16:42:30;;;;;;;3.23;2.50;;;8.10;99.90;;;;;;4997137;28;20486;-69
2021/11/04 16:44:56;;;;;;;2.90;2.70;;;7.90;99.90;;;;;;5002425;28;20521;-71
2021/11/04 16:47:23;;;;;;;2.73;2.63;;;7.90;99.90;;;;;;4999619;28;20467;-70
2021/11/04 16:49:50;;;;;;;2.47;2.37;;;7.90;99.90;;;;;;4996420;28;20450;-69
2021/11/04 16:52:18;;;;;;;2.73;2.53;;;7.90;99.90;;;;;;4996780;28;20989;-70
2021/11/04 16:54:45;;;;;;;2.77;2.50;;;7.90;99.90;;;;;;4997138;28;20450;-70
2021/11/04 16:57:11;;;;;;;2.70;2.60;;;8.00;99.90;;;;;;4996945;28;20458;-71
2021/11/04 16:59:38;;;;;;;2.93;2.73;;;8.00;99.90;;;;;;4996809;28;20455;-71
2021/11/04 17:02:05;;;;;;;2.70;2.60;;;8.00;99.90;;;;;;4996119;28;20483;-70
2021/11/04 17:04:32;;;;;;;2.60;2.50;;;8.00;99.90;;;;;;4997238;28;20458;-70
2021/11/04 17:06:59;;;;;;;3.03;2.83;;;8.10;99.90;;;;;;4996706;28;20455;-69
2021/11/04 17:09:27;;;;;;;7.53;3.10;;;8.10;99.90;;;;;;4996272;28;20457;-69
2021/11/04 17:11:56;;;;;;;3.00;2.77;;;8.10;99.90;;;;;;4996585;28;20542;-69
2021/11/04 17:14:23;;;;;;;2.80;2.70;;;8.10;99.90;;;;;;4996651;28;20562;-71
2021/11/04 17:16:50;;;;;;;3.00;2.80;;;8.00;99.90;;;;;;4996292;28;20459;-70
2021/11/04 17:19:16;;;;;;;4.93;3.10;;;8.10;99.90;;;;;;4996068;28;20802;-69
2021/11/04 17:21:44;;;;;;;3.33;3.10;;;8.10;99.90;;;;;;4996361;28;20485;-70
2021/11/04 17:24:11;;;;;;;3.30;3.10;;;8.10;99.90;;;;;;4996387;28;20461;-71
2021/11/04 17:26:39;;;;;;;4.40;3.03;;;8.10;99.90;;;;;;4996406;28;20454;-70
2021/11/04 17:29:06;;;;;;;3.30;3.10;;;8.10;99.90;;;;;;4996282;28;20466;-69
2021/11/04 17:31:35;;;;;;;3.57;3.27;;;8.10;99.90;;;;;;4996130;28;20570;-69
2021/11/04 17:34:02;;;;;;;3.20;3.00;;;8.10;99.90;;;;;;4996229;28;20443;-69
2021/11/04 17:36:29;;;;;;;3.47;3.27;;;8.10;99.90;;;;;;4996211;28;20464;-69
2021/11/04 17:38:56;;;;;;;3.67;3.47;;;8.10;99.90;;;;;;4996537;28;20463;-69
2021/11/04 17:41:23;;;;;;;3.50;2.97;;;8.10;99.90;;;;;;5000213;28;20474;-69
2021/11/04 17:43:51;;;;;;;3.00;2.80;;;8.10;99.90;;;;;;5003614;28;20458;-69
2021/11/04 17:46:19;;;;;;;7.83;2.37;;;8.10;99.90;;;;;;5003833;28;20969;-69
2021/11/04 17:48:47;;;;;;;6.00;2.80;;;8.10;99.90;;;;;;5002598;28;20525;-70
2021/11/04 17:51:15;;;;;;;2.37;2.20;;;8.10;99.90;;;;;;5000671;28;20470;-72
2021/11/04 17:53:42;;;;;;;2.30;2.20;;;8.00;99.90;;;;;;4998485;28;20451;-72
2021/11/04 17:56:10;;;;;;;2.70;2.50;;;8.00;99.90;;;;;;4996395;28;20455;-74
2021/11/04 17:58:37;;;;;;;2.23;2.20;;;8.00;99.90;;;;;;4995885;28;20482;-71